createdAt,value
2023-05-01T00:00:12.334Z,11.91
2023-05-01T00:01:07.211Z,12.03
2023-05-01T00:01:47.340Z,12.04
2023-05-01T00:02:27.281Z,12.05
2023-05-01T00:03:07.339Z,12.00
2023-05-01T00:03:47.404Z,12.03
2023-05-01T00:04:27.329Z,11.98
2023-05-01T00:05:10.318Z,11.94
2023-05-01T00:05:53.671Z,12.05
2023-05-01T00:06:35.281Z,11.96
2023-05-01T00:07:15.381Z,12.04
2023-05-01T00:07:55.198Z,12.01
2023-05-01T00:08:35.305Z,12.01
2023-05-01T00:09:16.185Z,11.96
2023-05-01T00:09:57.702Z,12.00
2023-05-01T00:10:38.237Z,11.95
2023-05-01T00:11:18.575Z,11.93
2023-05-01T00:12:00.179Z,11.75
2023-05-01T00:12:40.313Z,11.69
2023-05-01T00:13:20.197Z,11.79
2023-05-01T00:14:00.271Z,11.83
2023-05-01T00:14:40.201Z,11.86
2023-05-01T00:15:20.353Z,11.77
2023-05-01T00:16:02.297Z,11.76
2023-05-01T00:16:42.610Z,11.78
2023-05-01T00:17:23.267Z,11.79
2023-05-01T00:18:03.409Z,11.85
2023-05-01T00:18:44.191Z,11.60
2023-05-01T00:19:24.281Z,11.69
2023-05-01T00:20:05.225Z,11.77
2023-05-01T00:20:45.271Z,11.81
2023-05-01T00:21:25.221Z,11.80
2023-05-01T00:22:05.311Z,11.78
2023-05-01T00:22:45.179Z,11.70
2023-05-01T00:23:26.360Z,11.62
2023-05-01T00:24:06.224Z,11.74
2023-05-01T00:24:48.937Z,11.70
2023-05-01T00:25:29.202Z,11.73
2023-05-01T00:26:23.300Z,11.75
2023-05-01T00:27:03.161Z,11.73
2023-05-01T00:27:43.426Z,11.76
2023-05-01T00:28:26.271Z,11.74
2023-05-01T00:29:06.325Z,11.75
2023-05-01T00:29:47.248Z,11.77
2023-05-01T00:30:30.186Z,11.76
2023-05-01T00:31:11.190Z,11.71
2023-05-01T00:31:52.291Z,11.74
2023-05-01T00:32:26.430Z,11.56
2023-05-01T00:33:13.190Z,11.64
2023-05-01T00:33:47.386Z,11.67
2023-05-01T00:34:41.250Z,11.62
2023-05-01T00:35:35.244Z,11.62
2023-05-01T00:36:29.191Z,11.67
2023-05-01T00:37:16.246Z,11.60
2023-05-01T00:37:50.676Z,11.58
2023-05-01T00:38:37.180Z,11.62
2023-05-01T00:39:12.224Z,11.63
2023-05-01T00:39:59.277Z,11.50
2023-05-01T00:40:33.251Z,11.51
2023-05-01T00:41:20.158Z,11.48
2023-05-01T00:41:54.894Z,11.54
2023-05-01T00:42:42.328Z,11.55
2023-05-01T00:43:22.402Z,11.41
2023-05-01T00:44:02.183Z,11.53
2023-05-01T00:44:42.259Z,11.46
2023-05-01T00:45:22.177Z,11.47
2023-05-01T00:46:02.537Z,11.48
2023-05-01T00:46:43.162Z,11.49
2023-05-01T00:47:23.337Z,11.47
2023-05-01T00:48:04.233Z,11.37
2023-05-01T00:48:59.186Z,11.42
2023-05-01T00:49:56.499Z,11.46
2023-05-01T00:50:50.202Z,11.42
2023-05-01T00:51:45.174Z,11.41
2023-05-01T00:52:39.210Z,11.39
2023-05-01T00:53:27.176Z,11.46
2023-05-01T00:54:01.583Z,11.36
2023-05-01T00:54:48.202Z,11.35
2023-05-01T00:55:22.232Z,11.36
2023-05-01T00:56:10.167Z,11.25
2023-05-01T00:56:44.258Z,11.36
2023-05-01T00:57:32.179Z,11.27
2023-05-01T00:58:07.587Z,11.35
2023-05-01T00:58:48.193Z,11.35
2023-05-01T00:59:29.044Z,11.36
2023-05-01T01:00:12.146Z,11.23
2023-05-01T01:00:52.334Z,11.32
2023-05-01T01:01:32.154Z,11.29
2023-05-01T01:02:15.257Z,11.39
2023-05-01T01:02:56.275Z,11.33
2023-05-01T01:03:36.303Z,11.35
2023-05-01T01:04:17.321Z,11.40
2023-05-01T01:04:57.305Z,11.40
2023-05-01T01:05:39.147Z,11.32
2023-05-01T01:06:40.594Z,11.39
2023-05-01T01:07:47.154Z,11.27
2023-05-01T01:08:36.223Z,11.29
2023-05-01T01:09:43.193Z,11.31
2023-05-01T01:10:32.279Z,11.20
2023-05-01T01:11:22.146Z,11.26
2023-05-01T01:12:34.542Z,11.25
2023-05-01T01:13:27.133Z,11.12
2023-05-01T01:14:22.255Z,11.02
2023-05-01T01:15:09.147Z,11.08
2023-05-01T01:16:13.960Z,11.10
2023-05-01T01:17:28.208Z,11.16
2023-05-01T01:18:27.295Z,11.24
2023-05-01T01:19:50.115Z,11.23
2023-05-01T01:21:00.152Z,11.23
2023-05-01T01:21:38.411Z,11.22
2023-05-01T01:22:31.183Z,11.15
2023-05-01T01:23:41.823Z,11.15
2023-05-01T01:24:47.153Z,11.13
2023-05-01T01:26:14.135Z,11.02
2023-05-01T01:28:05.119Z,11.08
2023-05-01T01:29:56.397Z,10.98
2023-05-01T01:31:22.179Z,10.83
2023-05-01T01:33:17.162Z,10.92
2023-05-01T01:34:34.089Z,10.89
2023-05-01T01:35:39.137Z,10.92
2023-05-01T01:36:55.146Z,10.88
2023-05-01T01:38:08.113Z,10.86
2023-05-01T01:39:23.132Z,10.74
2023-05-01T01:40:22.120Z,10.67
2023-05-01T01:41:27.119Z,10.81
2023-05-01T01:42:17.196Z,10.81
2023-05-01T01:42:58.198Z,10.78
2023-05-01T01:43:50.124Z,10.72
2023-05-01T01:44:40.243Z,10.76
2023-05-01T01:45:36.133Z,10.67
2023-05-01T01:46:16.621Z,10.71
2023-05-01T01:47:07.081Z,10.70
2023-05-01T01:47:48.314Z,10.70
2023-05-01T01:48:49.130Z,10.83
2023-05-01T01:49:45.105Z,10.71
2023-05-01T01:50:40.131Z,10.78
2023-05-01T01:51:36.097Z,10.83
2023-05-01T01:52:30.115Z,10.78
2023-05-01T01:53:12.118Z,10.87
2023-05-01T01:53:57.167Z,10.88
2023-05-01T01:54:44.128Z,10.86
2023-05-01T01:55:25.373Z,10.86
2023-05-01T01:56:07.121Z,10.80
2023-05-01T01:56:49.289Z,10.80
2023-05-01T01:57:31.129Z,10.72
2023-05-01T01:58:19.185Z,10.76
2023-05-01T01:59:15.108Z,10.75
2023-05-01T02:00:10.109Z,10.78
2023-05-01T02:01:04.170Z,10.72
2023-05-01T02:01:58.128Z,10.75
2023-05-01T02:02:54.218Z,10.66
2023-05-01T02:03:42.188Z,10.71
2023-05-01T02:04:17.282Z,10.61
2023-05-01T02:05:06.083Z,10.70
2023-05-01T02:05:41.175Z,10.67
2023-05-01T02:06:29.111Z,10.69
2023-05-01T02:07:03.155Z,10.77
2023-05-01T02:07:55.106Z,10.76
2023-05-01T02:08:30.320Z,10.74
2023-05-01T02:09:13.124Z,10.61
2023-05-01T02:09:53.242Z,10.72
2023-05-01T02:10:34.083Z,10.66
2023-05-01T02:11:15.393Z,10.54
2023-05-01T02:11:57.147Z,10.63
2023-05-01T02:12:38.184Z,10.50
2023-05-01T02:13:19.068Z,10.56
2023-05-01T02:14:01.874Z,10.59
2023-05-01T02:14:44.108Z,10.53
2023-05-01T02:15:25.902Z,10.60
2023-05-01T02:16:08.180Z,10.60
2023-05-01T02:16:49.156Z,10.55
2023-05-01T02:17:30.193Z,10.46
2023-05-01T02:18:10.359Z,10.42
2023-05-01T02:18:53.063Z,10.30
2023-05-01T02:19:33.182Z,10.26
2023-05-01T02:20:17.137Z,10.42
2023-05-01T02:20:58.674Z,10.25
2023-05-01T02:21:41.088Z,10.09
2023-05-01T02:22:23.310Z,10.29
2023-05-01T02:23:04.087Z,10.33
2023-05-01T02:23:45.176Z,10.33
2023-05-01T02:24:29.137Z,10.29
2023-05-01T02:25:10.585Z,10.21
2023-05-01T02:25:51.089Z,10.27
2023-05-01T02:26:33.156Z,10.32
2023-05-01T02:27:22.112Z,10.28
2023-05-01T02:28:12.215Z,10.23
2023-05-01T02:28:52.077Z,10.26
2023-05-01T02:29:32.404Z,10.25
2023-05-01T02:30:14.070Z,10.25
2023-05-01T02:31:01.110Z,10.24
2023-05-01T02:31:55.151Z,10.26
2023-05-01T02:32:49.142Z,10.38
2023-05-01T02:33:43.083Z,10.29
2023-05-01T02:34:37.082Z,10.10
2023-05-01T02:35:32.063Z,10.30
2023-05-01T02:36:20.164Z,10.28
2023-05-01T02:36:54.151Z,10.23
2023-05-01T02:37:41.094Z,10.13
2023-05-01T02:38:15.157Z,10.23
2023-05-01T02:39:03.039Z,10.31
2023-05-01T02:39:37.241Z,10.33
2023-05-01T02:40:24.092Z,10.27
2023-05-01T02:41:02.367Z,10.33
2023-05-01T02:41:44.101Z,10.42
2023-05-01T02:42:25.595Z,10.36
2023-05-01T02:43:08.053Z,10.41
2023-05-01T02:43:48.365Z,10.34
2023-05-01T02:44:30.047Z,10.41
2023-05-01T02:45:14.348Z,10.41
2023-05-01T02:45:55.172Z,10.33
2023-05-01T02:46:38.271Z,10.28
2023-05-01T02:47:24.149Z,10.21
2023-05-01T02:48:06.176Z,10.21
2023-05-01T02:48:47.041Z,10.07
2023-05-01T02:49:28.186Z,10.09
2023-05-01T02:50:09.071Z,10.15
2023-05-01T02:50:51.139Z,10.01
2023-05-01T02:51:32.052Z,10.17
2023-05-01T02:52:12.119Z,10.11
2023-05-01T02:52:53.127Z,9.96
2023-05-01T02:53:33.542Z,10.15
2023-05-01T02:54:14.055Z,9.93
2023-05-01T02:54:55.161Z,10.05
2023-05-01T02:55:36.120Z,9.96
2023-05-01T02:56:16.140Z,9.87
2023-05-01T02:56:57.025Z,9.97
2023-05-01T02:57:41.345Z,9.84
2023-05-01T02:58:26.074Z,9.96
2023-05-01T02:59:06.473Z,9.91
2023-05-01T02:59:49.039Z,10.01
2023-05-01T03:00:29.918Z,10.01
2023-05-01T03:01:11.161Z,9.95
2023-05-01T03:01:51.901Z,9.89
2023-05-01T03:02:32.142Z,9.85
2023-05-01T03:03:12.205Z,9.76
2023-05-01T03:03:52.083Z,9.78
2023-05-01T03:04:32.190Z,9.83
2023-05-01T03:05:14.032Z,9.95
2023-05-01T03:05:54.559Z,9.76
2023-05-01T03:06:36.110Z,9.82
2023-05-01T03:07:16.153Z,9.80
2023-05-01T03:07:58.039Z,9.69
2023-05-01T03:08:38.351Z,9.78
2023-05-01T03:09:19.043Z,9.83
2023-05-01T03:09:59.295Z,9.80
2023-05-01T03:10:40.075Z,9.81
2023-05-01T03:11:21.166Z,9.82
2023-05-01T03:12:01.031Z,9.68
2023-05-01T03:12:41.891Z,9.72
2023-05-01T03:13:23.052Z,9.69
2023-05-01T03:14:03.147Z,9.68
2023-05-01T03:14:43.037Z,9.49
2023-05-01T03:15:23.108Z,9.58
2023-05-01T03:16:03.093Z,9.72
2023-05-01T03:16:43.497Z,9.62
2023-05-01T03:17:24.079Z,9.60
2023-05-01T03:18:04.168Z,9.59
2023-05-01T03:18:44.003Z,9.53
2023-05-01T03:19:24.198Z,9.62
2023-05-01T03:20:04.041Z,9.60
2023-05-01T03:20:44.117Z,9.73
2023-05-01T03:21:25.042Z,9.75
2023-05-01T03:22:05.122Z,9.68
2023-05-01T03:22:46.033Z,9.71
2023-05-01T03:23:27.987Z,9.73
2023-05-01T03:24:09.006Z,9.57
2023-05-01T03:24:50.700Z,9.62
2023-05-01T03:25:32.051Z,9.62
2023-05-01T03:26:12.102Z,9.69
2023-05-01T03:26:52.014Z,9.63
2023-05-01T03:27:32.192Z,9.68
2023-05-01T03:28:13.037Z,9.55
2023-05-01T03:28:53.095Z,9.46
2023-05-01T03:29:34.073Z,9.49
2023-05-01T03:30:15.898Z,9.40
2023-05-01T03:30:59.037Z,9.42
2023-05-01T03:31:39.118Z,9.56
2023-05-01T03:32:20.129Z,9.55
2023-05-01T03:33:00.178Z,9.58
2023-05-01T03:33:41.025Z,9.65
2023-05-01T03:34:21.080Z,9.43
2023-05-01T03:35:01.131Z,9.54
2023-05-01T03:35:41.131Z,9.44
2023-05-01T03:36:21.014Z,9.39
2023-05-01T03:37:01.318Z,9.50
2023-05-01T03:37:42.985Z,9.52
2023-05-01T03:38:24.080Z,9.47
2023-05-01T03:39:03.993Z,9.42
2023-05-01T03:39:44.081Z,9.48
2023-05-01T03:40:25.065Z,9.51
2023-05-01T03:41:06.338Z,9.45
2023-05-01T03:41:47.021Z,9.57
2023-05-01T03:42:27.158Z,9.48
2023-05-01T03:43:07.001Z,9.48
2023-05-01T03:43:47.100Z,9.54
2023-05-01T03:44:27.994Z,9.62
2023-05-01T03:45:08.207Z,9.32
2023-05-01T03:45:49.134Z,9.45
2023-05-01T03:46:29.264Z,9.53
2023-05-01T03:47:09.016Z,9.61
2023-05-01T03:47:49.154Z,9.55
2023-05-01T03:48:30.000Z,9.52
2023-05-01T03:49:10.078Z,9.51
2023-05-01T03:49:50.972Z,9.58
2023-05-01T03:50:32.006Z,9.57
2023-05-01T03:51:12.966Z,9.53
2023-05-01T03:51:53.109Z,9.50
2023-05-01T03:52:33.060Z,9.32
2023-05-01T03:53:13.530Z,9.28
2023-05-01T03:53:53.987Z,9.35
2023-05-01T03:54:34.067Z,9.45
2023-05-01T03:55:14.973Z,9.44
2023-05-01T03:55:55.218Z,9.48
2023-05-01T03:56:34.974Z,9.40
2023-05-01T03:57:15.166Z,9.39
2023-05-01T03:57:56.059Z,9.35
2023-05-01T03:58:36.210Z,9.44
2023-05-01T03:59:16.000Z,9.29
2023-05-01T03:59:56.388Z,9.33
2023-05-01T04:00:37.985Z,9.41
2023-05-01T04:01:33.042Z,9.28
2023-05-01T04:02:27.074Z,9.24
2023-05-01T04:03:15.057Z,9.33
2023-05-01T04:03:49.410Z,9.20
2023-05-01T04:04:36.086Z,8.96
2023-05-01T04:05:10.151Z,9.15
2023-05-01T04:05:57.099Z,9.23
2023-05-01T04:06:31.176Z,9.33
2023-05-01T04:07:19.020Z,9.09
2023-05-01T04:07:53.070Z,9.09
2023-05-01T04:08:39.998Z,8.96
2023-05-01T04:09:14.058Z,8.94
2023-05-01T04:10:00.978Z,8.85
2023-05-01T04:10:36.006Z,8.96
2023-05-01T04:11:22.999Z,8.87
2023-05-01T04:11:57.092Z,9.01
2023-05-01T04:12:44.021Z,9.09
2023-05-01T04:13:18.061Z,9.04
2023-05-01T04:14:05.003Z,8.97
2023-05-01T04:14:39.043Z,9.11
2023-05-01T04:15:28.981Z,9.21
2023-05-01T04:16:03.067Z,9.24
2023-05-01T04:16:49.978Z,9.36
2023-05-01T04:17:24.165Z,9.35
2023-05-01T04:18:11.174Z,9.43
2023-05-01T04:18:45.087Z,9.37
2023-05-01T04:19:25.012Z,9.44
2023-05-01T04:20:08.089Z,9.49
2023-05-01T04:20:47.983Z,9.47
2023-05-01T04:21:28.078Z,9.41
2023-05-01T04:22:09.009Z,9.45
2023-05-01T04:22:49.137Z,9.55
2023-05-01T04:23:28.984Z,9.41
2023-05-01T04:24:09.125Z,9.41
2023-05-01T04:24:49.008Z,9.46
2023-05-01T04:25:29.379Z,9.29
2023-05-01T04:26:10.951Z,9.37
2023-05-01T04:26:51.061Z,9.18
2023-05-01T04:27:32.006Z,9.28
2023-05-01T04:28:12.433Z,9.49
2023-05-01T04:28:52.957Z,9.44
2023-05-01T04:29:33.039Z,9.41
2023-05-01T04:30:13.957Z,9.44
2023-05-01T04:30:54.036Z,9.39
2023-05-01T04:31:33.961Z,9.35
2023-05-01T04:32:15.040Z,9.14
2023-05-01T04:32:54.992Z,9.05
2023-05-01T04:33:35.237Z,9.17
2023-05-01T04:34:14.996Z,9.21
2023-05-01T04:34:55.031Z,9.21
2023-05-01T04:35:34.976Z,9.20
2023-05-01T04:36:15.055Z,9.32
2023-05-01T04:36:56.008Z,9.30
2023-05-01T04:37:36.980Z,9.30
2023-05-01T04:38:16.941Z,9.25
2023-05-01T04:38:57.351Z,9.26
2023-05-01T04:39:37.943Z,9.39
2023-05-01T04:40:19.212Z,9.40
2023-05-01T04:40:58.955Z,9.45
2023-05-01T04:41:39.053Z,9.45
2023-05-01T04:42:18.936Z,9.45
2023-05-01T04:42:59.059Z,9.42
2023-05-01T04:43:39.023Z,9.39
2023-05-01T04:44:19.072Z,9.62
2023-05-01T04:44:58.958Z,9.62
2023-05-01T04:45:39.097Z,9.72
2023-05-01T04:46:19.991Z,9.78
2023-05-01T04:47:00.053Z,9.78
2023-05-01T04:47:39.980Z,9.81
2023-05-01T04:48:20.033Z,9.82
2023-05-01T04:48:59.937Z,9.63
2023-05-01T04:49:40.039Z,9.55
2023-05-01T04:50:20.945Z,9.76
2023-05-01T04:51:01.229Z,9.93
2023-05-01T04:51:40.981Z,9.91
2023-05-01T04:52:21.023Z,9.90
2023-05-01T04:53:00.926Z,9.95
2023-05-01T04:53:41.083Z,10.06
2023-05-01T04:54:20.989Z,10.03
2023-05-01T04:55:01.010Z,10.05
2023-05-01T04:55:42.910Z,10.20
2023-05-01T04:56:22.998Z,10.13
2023-05-01T04:57:02.951Z,10.21
2023-05-01T04:57:42.998Z,10.10
2023-05-01T04:58:22.920Z,10.25
2023-05-01T04:59:02.998Z,10.31
2023-05-01T04:59:42.969Z,10.41
2023-05-01T05:00:24.046Z,10.40
2023-05-01T05:01:05.968Z,10.22
2023-05-01T05:01:46.122Z,10.26
2023-05-01T05:02:26.190Z,10.29
2023-05-01T05:03:07.242Z,10.47
2023-05-01T05:03:50.019Z,10.51
2023-05-01T05:04:31.050Z,10.41
2023-05-01T05:05:11.946Z,10.31
2023-05-01T05:05:52.009Z,10.24
2023-05-01T05:06:32.972Z,10.37
2023-05-01T05:07:13.352Z,10.40
2023-05-01T05:07:53.923Z,10.51
2023-05-01T05:08:34.540Z,10.62
2023-05-01T05:09:15.374Z,10.64
2023-05-01T05:09:57.348Z,10.60
2023-05-01T05:10:39.099Z,10.71
2023-05-01T05:11:20.021Z,10.83
2023-05-01T05:11:59.935Z,10.80
2023-05-01T05:12:40.068Z,10.77
2023-05-01T05:13:25.147Z,10.85
2023-05-01T05:14:05.032Z,10.70
2023-05-01T05:14:44.916Z,10.85
2023-05-01T05:15:24.974Z,10.94
2023-05-01T05:16:04.946Z,10.81
2023-05-01T05:16:45.039Z,10.99
2023-05-01T05:17:24.901Z,11.06
2023-05-01T05:18:05.010Z,11.01
2023-05-01T05:18:44.962Z,11.04
2023-05-01T05:19:25.098Z,11.04
2023-05-01T05:20:04.898Z,11.07
2023-05-01T05:20:46.199Z,11.14
2023-05-01T05:21:25.875Z,11.17
2023-05-01T05:22:08.016Z,11.11
2023-05-01T05:22:47.896Z,11.30
2023-05-01T05:23:27.981Z,11.36
2023-05-01T05:24:07.910Z,11.33
2023-05-01T05:24:47.979Z,11.41
2023-05-01T05:25:28.891Z,11.39
2023-05-01T05:26:08.973Z,11.38
2023-05-01T05:26:48.882Z,11.34
2023-05-01T05:27:29.027Z,11.36
2023-05-01T05:28:08.887Z,11.47
2023-05-01T05:28:49.226Z,11.55
2023-05-01T05:29:28.909Z,11.49
2023-05-01T05:30:13.095Z,11.48
2023-05-01T05:30:53.888Z,11.44
2023-05-01T05:31:34.114Z,11.50
2023-05-01T05:32:14.937Z,11.53
2023-05-01T05:32:55.170Z,11.54
2023-05-01T05:33:35.871Z,11.56
2023-05-01T05:34:16.029Z,11.64
2023-05-01T05:34:55.888Z,11.64
2023-05-01T05:35:36.447Z,11.80
2023-05-01T05:36:17.893Z,11.73
2023-05-01T05:36:58.030Z,11.68
2023-05-01T05:37:38.877Z,11.77
2023-05-01T05:38:19.017Z,11.90
2023-05-01T05:38:58.883Z,11.91
2023-05-01T05:39:38.966Z,11.96
2023-05-01T05:40:19.885Z,11.96
2023-05-01T05:41:00.868Z,12.08
2023-05-01T05:41:40.870Z,12.08
2023-05-01T05:42:20.991Z,12.07
2023-05-01T05:43:00.915Z,12.12
2023-05-01T05:43:40.972Z,12.12
2023-05-01T05:44:21.875Z,12.20
2023-05-01T05:45:02.002Z,12.19
2023-05-01T05:45:42.938Z,12.26
2023-05-01T05:46:23.024Z,12.29
2023-05-01T05:47:03.005Z,12.26
2023-05-01T05:47:45.092Z,12.37
2023-05-01T05:48:24.910Z,12.31
2023-05-01T05:49:05.026Z,12.35
2023-05-01T05:49:44.900Z,12.42
2023-05-01T05:50:38.875Z,12.39
2023-05-01T05:51:19.897Z,12.51
2023-05-01T05:51:59.998Z,12.45
2023-05-01T05:52:39.846Z,12.52
2023-05-01T05:53:19.980Z,12.53
2023-05-01T05:53:59.851Z,12.49
2023-05-01T05:54:40.522Z,12.60
2023-05-01T05:55:21.879Z,12.60
2023-05-01T05:56:02.318Z,12.64
2023-05-01T05:56:42.898Z,12.55
2023-05-01T05:57:23.152Z,12.59
2023-05-01T05:58:03.868Z,12.70
2023-05-01T05:58:43.976Z,12.65
2023-05-01T05:59:24.853Z,12.67
2023-05-01T06:00:05.552Z,12.81
2023-05-01T06:00:45.848Z,12.84
2023-05-01T06:01:26.122Z,12.87
2023-05-01T06:02:06.985Z,12.92
2023-05-01T06:02:48.635Z,12.90
2023-05-01T06:03:30.039Z,12.95
2023-05-01T06:04:11.401Z,12.97
2023-05-01T06:04:52.850Z,13.00
2023-05-01T06:05:33.872Z,12.96
2023-05-01T06:06:13.905Z,13.07
2023-05-01T06:06:55.162Z,13.06
2023-05-01T06:07:36.070Z,13.12
2023-05-01T06:08:16.022Z,13.12
2023-05-01T06:08:55.859Z,13.16
2023-05-01T06:09:36.518Z,13.25
2023-05-01T06:10:17.856Z,13.24
2023-05-01T06:10:58.885Z,13.13
2023-05-01T06:11:39.861Z,13.30
2023-05-01T06:12:19.947Z,13.18
2023-05-01T06:13:04.612Z,13.33
2023-05-01T06:13:55.261Z,13.26
2023-05-01T06:14:34.840Z,13.33
2023-05-01T06:15:16.996Z,13.36
2023-05-01T06:15:57.974Z,13.41
2023-05-01T06:16:38.327Z,13.36
2023-05-01T06:17:19.863Z,13.47
2023-05-01T06:18:06.931Z,13.52
2023-05-01T06:19:01.852Z,13.42
2023-05-01T06:19:56.084Z,13.44
2023-05-01T06:20:49.867Z,13.49
2023-05-01T06:21:43.891Z,13.59
2023-05-01T06:22:37.881Z,13.58
2023-05-01T06:23:25.865Z,13.58
2023-05-01T06:23:59.944Z,13.65
2023-05-01T06:24:46.836Z,13.59
2023-05-01T06:25:20.941Z,13.69
2023-05-01T06:26:07.868Z,13.62
2023-05-01T06:26:41.914Z,13.63
2023-05-01T06:27:28.843Z,13.57
2023-05-01T06:28:03.903Z,13.67
2023-05-01T06:28:50.894Z,13.76
2023-05-01T06:29:24.934Z,13.70
2023-05-01T06:30:12.840Z,13.76
2023-05-01T06:30:47.665Z,13.80
2023-05-01T06:31:34.843Z,13.83
2023-05-01T06:32:08.980Z,13.79
2023-05-01T06:32:56.857Z,13.87
2023-05-01T06:33:31.035Z,13.95
2023-05-01T06:34:10.836Z,13.82
2023-05-01T06:34:50.934Z,13.85
2023-05-01T06:35:31.864Z,13.91
2023-05-01T06:36:13.092Z,13.97
2023-05-01T06:36:52.838Z,13.96
2023-05-01T06:37:32.918Z,13.92
2023-05-01T06:38:12.835Z,13.96
2023-05-01T06:38:52.923Z,14.05
2023-05-01T06:39:32.852Z,14.11
2023-05-01T06:40:16.927Z,13.98
2023-05-01T06:40:56.886Z,14.15
2023-05-01T06:41:38.588Z,14.15
2023-05-01T06:42:22.839Z,14.19
2023-05-01T06:43:02.961Z,14.24
2023-05-01T06:43:42.811Z,14.26
2023-05-01T06:44:22.913Z,14.11
2023-05-01T06:45:02.841Z,14.17
2023-05-01T06:45:42.935Z,14.26
2023-05-01T06:46:25.842Z,14.05
2023-05-01T06:47:19.869Z,14.32
2023-05-01T06:48:14.000Z,14.30
2023-05-01T06:49:07.844Z,14.39
2023-05-01T06:50:04.414Z,14.37
2023-05-01T06:50:45.819Z,14.41
2023-05-01T06:51:25.908Z,14.45
2023-05-01T06:52:08.813Z,14.47
2023-05-01T06:52:50.981Z,14.49
2023-05-01T06:53:30.802Z,14.42
2023-05-01T06:54:11.023Z,14.42
2023-05-01T06:54:50.828Z,14.54
2023-05-01T06:55:30.873Z,14.52
2023-05-01T06:56:04.892Z,14.41
2023-05-01T06:56:51.805Z,14.50
2023-05-01T06:57:25.907Z,14.54
2023-05-01T06:58:23.490Z,14.59
2023-05-01T06:58:57.880Z,14.61
2023-05-01T06:59:44.856Z,14.60
2023-05-01T07:00:19.967Z,14.46
2023-05-01T07:01:00.899Z,14.63
2023-05-01T07:01:42.073Z,14.60
2023-05-01T07:02:21.837Z,14.69
2023-05-01T07:03:03.517Z,14.73
2023-05-01T07:03:43.893Z,14.77
2023-05-01T07:04:23.888Z,14.76
2023-05-01T07:05:03.851Z,14.74
2023-05-01T07:05:46.200Z,14.79
2023-05-01T07:06:25.858Z,14.86
2023-05-01T07:07:05.955Z,14.88
2023-05-01T07:07:58.023Z,14.94
2023-05-01T07:08:41.890Z,14.91
2023-05-01T07:09:21.812Z,14.98
2023-05-01T07:10:01.896Z,14.96
2023-05-01T07:10:42.810Z,14.97
2023-05-01T07:11:23.854Z,14.95
2023-05-01T07:12:05.892Z,14.92
2023-05-01T07:12:46.406Z,14.96
2023-05-01T07:13:26.808Z,14.93
2023-05-01T07:14:09.429Z,15.04
2023-05-01T07:14:50.833Z,14.99
2023-05-01T07:15:30.944Z,14.94
2023-05-01T07:16:11.851Z,15.03
2023-05-01T07:16:51.989Z,15.07
2023-05-01T07:17:32.897Z,15.13
2023-05-01T07:18:13.366Z,15.14
2023-05-01T07:18:54.775Z,15.10
2023-05-01T07:19:48.801Z,15.25
2023-05-01T07:20:42.799Z,15.27
2023-05-01T07:21:36.821Z,15.09
2023-05-01T07:22:30.798Z,15.14
2023-05-01T07:23:11.816Z,15.16
2023-05-01T07:23:51.918Z,15.29
2023-05-01T07:24:32.774Z,15.15
2023-05-01T07:25:14.205Z,15.25
2023-05-01T07:25:54.979Z,15.26
2023-05-01T07:26:35.182Z,15.08
2023-05-01T07:27:16.788Z,15.25
2023-05-01T07:27:56.841Z,15.15
2023-05-01T07:28:30.960Z,15.10
2023-05-01T07:29:19.778Z,15.17
2023-05-01T07:29:54.230Z,15.04
2023-05-01T07:30:44.807Z,14.95
2023-05-01T07:31:18.944Z,15.04
2023-05-01T07:32:05.897Z,15.08
2023-05-01T07:32:40.812Z,15.08
2023-05-01T07:33:20.878Z,15.20
2023-05-01T07:34:00.950Z,15.25
2023-05-01T07:34:40.810Z,15.11
2023-05-01T07:35:20.951Z,15.27
2023-05-01T07:36:00.780Z,15.35
2023-05-01T07:36:41.628Z,15.33
2023-05-01T07:37:21.767Z,15.31
2023-05-01T07:38:01.849Z,15.28
2023-05-01T07:38:42.839Z,15.39
2023-05-01T07:39:22.875Z,15.38
2023-05-01T07:40:04.808Z,15.40
2023-05-01T07:40:44.895Z,15.46
2023-05-01T07:41:24.809Z,15.45
2023-05-01T07:42:04.856Z,15.45
2023-05-01T07:42:47.206Z,15.44
2023-05-01T07:43:27.840Z,15.41
2023-05-01T07:44:08.771Z,15.22
2023-05-01T07:44:51.839Z,15.46
2023-05-01T07:45:34.954Z,15.47
2023-05-01T07:46:17.178Z,15.34
2023-05-01T07:46:59.838Z,15.50
2023-05-01T07:47:42.047Z,15.45
2023-05-01T07:48:21.759Z,15.36
2023-05-01T07:49:15.789Z,15.28
2023-05-01T07:50:09.792Z,15.51
2023-05-01T07:51:04.812Z,15.55
2023-05-01T07:51:58.893Z,15.54
2023-05-01T07:52:52.782Z,15.50
2023-05-01T07:53:48.843Z,15.45
2023-05-01T07:54:35.816Z,15.47
2023-05-01T07:55:09.899Z,15.24
2023-05-01T07:55:57.074Z,15.48
2023-05-01T07:56:31.952Z,15.51
2023-05-01T07:57:18.755Z,15.49
2023-05-01T07:57:52.818Z,15.45
2023-05-01T07:58:39.797Z,15.46
2023-05-01T07:59:16.047Z,15.50
2023-05-01T08:00:04.804Z,15.61
2023-05-01T08:00:47.604Z,15.68
2023-05-01T08:01:27.789Z,15.72
2023-05-01T08:02:08.064Z,15.75
2023-05-01T08:02:48.858Z,15.78
2023-05-01T08:03:29.718Z,15.73
2023-05-01T08:04:09.895Z,15.65
2023-05-01T08:04:51.127Z,15.73
2023-05-01T08:05:30.773Z,15.65
2023-05-01T08:06:11.989Z,15.65
2023-05-01T08:06:51.920Z,15.68
2023-05-01T08:07:35.108Z,15.69
2023-05-01T08:08:17.735Z,15.78
2023-05-01T08:08:57.923Z,15.83
2023-05-01T08:09:38.749Z,15.73
2023-05-01T08:10:21.825Z,15.80
2023-05-01T08:11:02.763Z,15.86
2023-05-01T08:11:42.806Z,15.79
2023-05-01T08:12:22.755Z,15.72
2023-05-01T08:13:02.876Z,15.79
2023-05-01T08:13:42.746Z,15.84
2023-05-01T08:14:22.880Z,15.82
2023-05-01T08:15:02.753Z,15.88
2023-05-01T08:15:42.956Z,15.93
2023-05-01T08:16:26.853Z,16.03
2023-05-01T08:17:06.813Z,16.04
2023-05-01T08:17:46.831Z,16.04
2023-05-01T08:18:26.844Z,16.09
2023-05-01T08:19:09.761Z,16.11
2023-05-01T08:19:56.869Z,16.14
2023-05-01T08:20:37.739Z,16.06
2023-05-01T08:21:17.831Z,16.09
2023-05-01T08:21:58.747Z,16.06
2023-05-01T08:22:38.810Z,16.12
2023-05-01T08:23:18.795Z,16.25
2023-05-01T08:24:01.806Z,16.28
2023-05-01T08:24:41.720Z,16.28
2023-05-01T08:25:21.823Z,16.32
2023-05-01T08:26:02.771Z,16.17
2023-05-01T08:26:42.815Z,16.17
2023-05-01T08:27:22.755Z,16.18
2023-05-01T08:28:03.359Z,16.14
2023-05-01T08:28:45.029Z,16.20
2023-05-01T08:29:29.835Z,16.27
2023-05-01T08:30:10.723Z,16.22
2023-05-01T08:30:50.984Z,16.25
2023-05-01T08:31:31.816Z,16.22
2023-05-01T08:32:11.901Z,16.24
2023-05-01T08:32:54.829Z,16.26
2023-05-01T08:33:34.914Z,16.35
2023-05-01T08:34:14.734Z,16.34
2023-05-01T08:34:54.818Z,16.41
2023-05-01T08:35:35.737Z,16.45
2023-05-01T08:36:20.700Z,16.47
2023-05-01T08:37:00.764Z,16.52
2023-05-01T08:37:43.910Z,16.51
2023-05-01T08:38:24.765Z,16.52
2023-05-01T08:39:05.787Z,16.38
2023-05-01T08:39:45.857Z,16.34
2023-05-01T08:40:25.856Z,16.05
2023-05-01T08:41:10.748Z,16.22
2023-05-01T08:41:54.846Z,16.28
2023-05-01T08:42:35.717Z,16.31
2023-05-01T08:43:15.869Z,16.31
2023-05-01T08:43:57.725Z,16.33
2023-05-01T08:44:39.861Z,16.29
2023-05-01T08:45:20.719Z,16.42
2023-05-01T08:46:01.220Z,16.44
2023-05-01T08:47:04.845Z,16.31
2023-05-01T08:47:46.877Z,16.47
2023-05-01T08:48:27.704Z,16.41
2023-05-01T08:49:19.731Z,16.49
2023-05-01T08:50:16.782Z,16.54
2023-05-01T08:51:12.710Z,16.47
2023-05-01T08:52:07.726Z,16.33
2023-05-01T08:53:07.257Z,16.43
2023-05-01T08:54:02.709Z,16.51
2023-05-01T08:54:55.708Z,16.51
2023-05-01T08:55:42.794Z,16.62
2023-05-01T08:56:24.727Z,16.62
2023-05-01T08:57:10.525Z,16.63
2023-05-01T08:57:55.712Z,16.50
2023-05-01T08:58:40.917Z,16.48
2023-05-01T08:59:27.742Z,16.66
2023-05-01T09:00:27.767Z,16.68
2023-05-01T09:01:03.081Z,16.63
2023-05-01T09:02:12.779Z,16.72
2023-05-01T09:02:52.390Z,16.78
2023-05-01T09:03:42.898Z,16.80
2023-05-01T09:04:22.144Z,16.80
2023-05-01T09:05:10.725Z,16.94
2023-05-01T09:05:56.433Z,16.98
2023-05-01T09:06:51.781Z,16.98
2023-05-01T09:07:45.911Z,16.97
2023-05-01T09:08:39.674Z,16.86
2023-05-01T09:09:33.758Z,16.93
2023-05-01T09:10:33.777Z,16.92
2023-05-01T09:11:13.704Z,16.95
2023-05-01T09:11:53.859Z,16.96
2023-05-01T09:12:35.686Z,17.01
2023-05-01T09:13:17.807Z,16.95
2023-05-01T09:14:01.712Z,16.97
2023-05-01T09:14:41.831Z,16.89
2023-05-01T09:15:22.700Z,16.90
2023-05-01T09:16:03.319Z,16.97
2023-05-01T09:16:43.817Z,16.98
2023-05-01T09:17:23.826Z,16.97
2023-05-01T09:18:07.757Z,16.98
2023-05-01T09:18:48.783Z,16.99
2023-05-01T09:19:29.686Z,17.07
2023-05-01T09:20:10.845Z,17.07
2023-05-01T09:20:50.791Z,17.09
2023-05-01T09:21:32.042Z,17.11
2023-05-01T09:22:12.707Z,17.08